createdAt,value
2019-04-05T00:03:42.256Z,60.37
2019-04-05T00:08:44.322Z,60.36
2019-04-05T00:13:46.422Z,60.38
2019-04-05T00:18:50.433Z,60.33
2019-04-05T00:23:54.416Z,60.14
2019-04-05T00:28:58.430Z,60.04
2019-04-05T00:34:02.398Z,60.14
2019-04-05T00:39:09.512Z,60.12
2019-04-05T00:44:11.612Z,60.05
2019-04-05T00:49:13.701Z,60.18
2019-04-05T00:54:15.798Z,59.99
2019-04-05T00:59:17.854Z,59.83
2019-04-05T01:04:19.926Z,59.70
2019-04-05T01:09:22.023Z,59.94
2019-04-05T01:14:24.901Z,60.20
2019-04-05T01:19:31.081Z,59.93
2019-04-05T01:24:33.889Z,59.53
2019-04-05T01:29:35.939Z,59.30
2019-04-05T01:34:38.091Z,59.32
2019-04-05T01:39:40.168Z,59.38
2019-04-05T01:44:43.602Z,59.29
2019-04-05T01:49:45.679Z,59.38
2019-04-05T01:54:47.732Z,59.49
2019-04-05T01:59:49.763Z,59.34
2019-04-05T02:04:52.957Z,59.33
2019-04-05T02:09:55.468Z,59.39
2019-04-05T02:14:57.551Z,59.34
2019-04-05T02:19:59.636Z,59.23
2019-04-05T02:25:01.770Z,59.08
2019-04-05T02:30:04.575Z,59.15
2019-04-05T02:35:07.471Z,59.18
2019-04-05T02:40:12.229Z,59.12
2019-04-05T02:45:16.280Z,59.18
2019-04-05T02:50:20.104Z,59.02
2019-04-05T02:55:24.562Z,59.12
2019-04-05T03:00:28.218Z,59.44
2019-04-05T03:05:30.767Z,59.26
2019-04-05T03:11:10.472Z,59.17
2019-04-05T03:16:17.374Z,59.22
2019-04-05T03:21:21.122Z,59.33
2019-04-05T03:26:26.795Z,59.54
2019-04-05T03:31:29.210Z,59.79
2019-04-05T03:36:31.685Z,60.00
2019-04-05T03:41:34.051Z,60.03
2019-04-05T03:46:36.414Z,60.46
2019-04-05T03:51:38.969Z,60.50
2019-04-05T03:56:41.321Z,60.68
2019-04-05T04:01:43.743Z,60.76
2019-04-05T04:06:46.242Z,60.95
2019-04-05T04:11:48.320Z,60.99
2019-04-05T04:17:13.709Z,61.12
2019-04-05T04:22:28.634Z,61.17
2019-04-05T04:27:31.117Z,61.06
2019-04-05T04:32:33.630Z,61.32
2019-04-05T04:37:36.194Z,61.57
2019-04-05T04:42:38.641Z,61.64
2019-04-05T04:47:42.737Z,61.67
2019-04-05T04:52:45.720Z,61.98
2019-04-05T04:57:47.781Z,62.16
2019-04-05T05:02:51.521Z,62.08
2019-04-05T05:07:54.425Z,62.19
2019-04-05T05:12:58.192Z,62.53
2019-04-05T05:18:00.482Z,62.60
2019-04-05T05:23:03.085Z,62.74
2019-04-05T05:28:05.883Z,63.03
2019-04-05T05:33:08.209Z,63.24
2019-04-05T05:38:10.405Z,63.01
2019-04-05T05:43:12.438Z,63.11
2019-04-05T05:48:14.999Z,63.06
2019-04-05T05:53:17.287Z,63.15
2019-04-05T05:58:19.456Z,63.23
2019-04-05T06:03:21.530Z,63.05
2019-04-05T06:08:23.701Z,63.36
2019-04-05T06:13:25.867Z,63.51
2019-04-05T06:18:27.969Z,63.49
2019-04-05T06:23:33.945Z,63.49
2019-04-05T06:28:34.130Z,63.40
2019-04-05T06:33:36.308Z,63.66
2019-04-05T06:38:38.654Z,63.85
2019-04-05T06:43:43.666Z,63.70
2019-04-05T06:48:45.801Z,63.88
2019-04-05T06:53:47.945Z,63.57
2019-04-05T06:58:50.037Z,63.46
2019-04-05T07:03:55.076Z,63.56
2019-04-05T07:08:56.276Z,63.71
2019-04-05T07:13:58.362Z,64.01
2019-04-05T07:19:00.572Z,63.96
2019-04-05T07:24:02.812Z,63.54
2019-04-05T07:29:05.035Z,63.65
2019-04-05T07:34:07.151Z,63.62
2019-04-05T07:39:09.241Z,63.28
2019-04-05T07:44:11.358Z,63.04
2019-04-05T07:49:13.474Z,63.03
2019-04-05T07:54:15.582Z,63.14
2019-04-05T07:59:20.698Z,63.08
2019-04-05T08:04:21.681Z,63.04
2019-04-05T08:09:25.636Z,63.09
2019-04-05T08:14:28.159Z,62.82
2019-04-05T08:19:30.222Z,62.71
2019-04-05T08:24:32.446Z,62.59
2019-04-05T08:29:34.528Z,62.42
2019-04-05T08:34:36.641Z,62.61
2019-04-05T08:39:38.801Z,62.32
2019-04-05T08:44:40.891Z,61.77
2019-04-05T08:49:43.014Z,61.99
2019-04-05T08:54:45.149Z,61.86
2019-04-05T08:59:47.267Z,61.23
2019-04-05T09:04:49.610Z,60.55
2019-04-05T09:09:51.657Z,60.38
2019-04-05T09:14:53.720Z,60.48
2019-04-05T09:19:57.662Z,59.84
2019-04-05T09:24:59.755Z,59.10
2019-04-05T09:30:01.832Z,59.46
2019-04-05T09:35:05.954Z,59.06
2019-04-05T09:40:09.861Z,58.64
2019-04-05T09:45:11.913Z,58.74
2019-04-05T09:50:14.619Z,59.06
2019-04-05T09:55:16.727Z,58.75
2019-04-05T10:00:22.938Z,58.21
2019-04-05T10:05:25.054Z,58.36
2019-04-05T10:10:27.135Z,58.32
2019-04-05T10:15:29.155Z,58.24
2019-04-05T10:20:31.268Z,57.59
2019-04-05T10:25:33.452Z,57.20
2019-04-05T10:30:35.609Z,56.66
2019-04-05T10:35:37.694Z,56.69
2019-04-05T10:40:39.760Z,56.26
2019-04-05T10:45:41.805Z,56.18
2019-04-05T10:50:43.771Z,55.87
2019-04-05T10:55:45.933Z,55.81
2019-04-05T11:00:48.015Z,55.64
2019-04-05T11:05:52.252Z,55.95
2019-04-05T11:10:54.346Z,55.65
2019-04-05T11:15:56.390Z,55.58
2019-04-05T11:21:01.424Z,55.39
2019-04-05T11:26:04.344Z,55.04
2019-04-05T11:31:06.745Z,54.96
2019-04-05T11:36:08.804Z,54.77
2019-04-05T11:41:11.163Z,53.89
2019-04-05T11:46:14.500Z,53.50
2019-04-05T11:51:16.557Z,54.04
2019-04-05T11:56:20.106Z,53.92
2019-04-05T12:01:30.138Z,53.23
2019-04-05T12:06:34.962Z,52.93
2019-04-05T12:11:36.110Z,52.33
2019-04-05T12:16:38.166Z,52.05
2019-04-05T12:21:40.244Z,52.38
2019-04-05T12:26:42.801Z,52.29
2019-04-05T12:31:45.511Z,51.67
2019-04-05T12:36:47.644Z,51.71
2019-04-05T12:41:49.742Z,51.73
2019-04-05T12:46:51.827Z,51.42
2019-04-05T12:51:53.883Z,50.68
2019-04-05T12:56:57.882Z,50.50
2019-04-05T13:01:59.974Z,49.90
2019-04-05T13:07:01.999Z,50.47
2019-04-05T13:12:04.093Z,50.50
2019-04-05T13:17:06.260Z,50.66
2019-04-05T13:22:08.327Z,51.06
2019-04-05T13:27:12.506Z,51.19
2019-04-05T13:32:17.202Z,51.39
2019-04-05T13:37:20.823Z,51.24
2019-04-05T13:42:23.070Z,51.26
2019-04-05T13:47:25.148Z,50.68
2019-04-05T13:52:27.237Z,50.59
2019-04-05T13:57:29.304Z,50.71
2019-04-05T14:02:31.374Z,50.68
2019-04-05T14:07:34.337Z,50.97
2019-04-05T14:12:37.653Z,51.09
2019-04-05T14:17:43.996Z,51.08
2019-04-05T14:22:44.683Z,51.37
2019-04-05T14:27:46.758Z,51.14
2019-04-05T14:32:51.472Z,51.32
2019-04-05T14:37:54.516Z,51.32
2019-04-05T14:42:57.523Z,51.20
2019-04-05T14:47:59.577Z,51.35
2019-04-05T14:53:02.018Z,51.30
2019-04-05T14:58:06.020Z,51.44
2019-04-05T15:03:08.430Z,51.28
2019-04-05T15:08:10.537Z,51.54
2019-04-05T15:13:12.634Z,51.85
2019-04-05T15:18:14.728Z,51.82
2019-04-05T15:23:16.824Z,52.14
2019-04-05T15:28:18.903Z,52.34
2019-04-05T15:33:21.046Z,52.28
2019-04-05T15:38:23.147Z,52.20
2019-04-05T15:43:25.236Z,51.95
2019-04-05T15:48:27.375Z,52.40
2019-04-05T15:53:32.609Z,52.48
2019-04-05T15:58:34.862Z,52.51
2019-04-05T16:03:37.097Z,52.71
2019-04-05T16:08:39.349Z,52.51
2019-04-05T16:13:41.470Z,52.60
2019-04-05T16:18:44.132Z,52.71
2019-04-05T16:23:46.332Z,52.78
2019-04-05T16:28:48.423Z,52.93
2019-04-05T16:33:50.478Z,53.03
2019-04-05T16:38:52.588Z,52.97
2019-04-05T16:43:54.676Z,53.02
2019-04-05T16:48:56.729Z,53.06
2019-04-05T16:54:03.489Z,53.37
2019-04-05T16:59:05.799Z,53.55
2019-04-05T17:04:17.867Z,53.68
2019-04-05T17:09:20.046Z,53.91
2019-04-05T17:14:23.347Z,54.08
2019-04-05T17:19:25.826Z,54.06
2019-04-05T17:24:27.957Z,54.15
2019-04-05T17:29:30.016Z,54.30
2019-04-05T17:34:32.271Z,54.77
2019-04-05T17:39:34.391Z,55.16
2019-04-05T17:44:36.873Z,55.50
2019-04-05T17:49:41.076Z,55.81
2019-04-05T17:54:43.204Z,56.09
2019-04-05T17:59:45.380Z,56.51
2019-04-05T18:04:47.484Z,56.79
2019-04-05T18:09:49.653Z,57.04
2019-04-05T18:14:51.753Z,57.16
2019-04-05T18:19:53.910Z,57.51
2019-04-05T18:24:55.974Z,57.65
2019-04-05T18:29:58.081Z,57.67
2019-04-05T18:35:00.186Z,57.85
2019-04-05T18:40:02.262Z,58.00
2019-04-05T18:45:05.272Z,58.05
2019-04-05T18:50:08.184Z,58.18
2019-04-05T18:55:10.436Z,58.10
2019-04-05T19:00:12.754Z,58.10
2019-04-05T19:05:15.087Z,58.07
2019-04-05T19:10:17.203Z,58.06
2019-04-05T19:15:19.379Z,58.08
2019-04-05T19:20:21.447Z,58.23
2019-04-05T19:25:23.534Z,58.31
2019-04-05T19:50:41.632Z,59.93
2019-04-05T19:55:43.723Z,60.29
2019-04-05T20:00:45.913Z,60.62
2019-04-05T20:05:48.017Z,60.87
2019-04-05T20:10:50.080Z,61.25
2019-04-05T20:15:52.163Z,61.47
2019-04-05T20:20:54.267Z,61.72
2019-04-05T20:25:56.351Z,61.89
2019-04-05T20:30:58.519Z,62.10
2019-04-05T20:36:00.618Z,62.32
2019-04-05T20:41:02.767Z,62.63
2019-04-05T20:46:04.853Z,62.68
2019-04-05T20:51:06.898Z,62.89
2019-04-05T20:56:09.018Z,63.09
2019-04-05T21:01:11.111Z,63.13
2019-04-05T21:06:13.222Z,63.17
2019-04-05T21:11:15.479Z,63.19
2019-04-05T21:16:17.556Z,63.30
2019-04-05T21:21:19.701Z,63.52
2019-04-05T21:26:21.784Z,63.53
2019-04-05T21:31:23.861Z,63.55
2019-04-05T21:36:25.908Z,63.59
2019-04-05T21:41:27.973Z,63.62
2019-04-05T21:46:30.026Z,63.76
2019-04-05T21:51:32.081Z,63.82
2019-04-05T21:56:34.209Z,63.82
2019-04-05T22:01:36.831Z,63.88
2019-04-05T22:06:38.865Z,63.84
2019-04-05T22:11:40.819Z,64.00
2019-04-05T22:16:42.897Z,64.03
2019-04-05T22:21:45.040Z,64.09
2019-04-05T22:26:48.333Z,64.03
2019-04-05T22:31:50.446Z,63.99
2019-04-05T22:36:52.496Z,64.08
2019-04-05T22:41:54.641Z,64.12
2019-04-05T22:46:56.732Z,64.18
2019-04-05T22:51:58.878Z,64.29
2019-04-05T22:57:01.002Z,64.22
2019-04-05T23:02:03.141Z,64.20
2019-04-05T23:07:05.290Z,64.12
2019-04-05T23:12:07.415Z,64.15
2019-04-05T23:17:09.437Z,64.03
2019-04-05T23:22:11.643Z,63.75
2019-04-05T23:27:13.715Z,63.84
2019-04-05T23:32:15.830Z,63.83
2019-04-05T23:37:17.927Z,63.79
2019-04-05T23:42:20.043Z,64.01
2019-04-05T23:47:22.128Z,64.15
2019-04-05T23:52:24.236Z,64.26
2019-04-05T23:57:26.348Z,64.23
